createdAt,value
2018-12-22T00:01:14.719Z,86.50
2018-12-22T00:03:43.197Z,86.50
2018-12-22T00:06:11.706Z,86.40
2018-12-22T00:08:40.179Z,86.50
2018-12-22T00:11:08.820Z,86.40
2018-12-22T00:13:37.402Z,86.40
2018-12-22T00:16:06.115Z,86.40
2018-12-22T00:18:34.560Z,86.40
2018-12-22T00:21:03.241Z,86.40
2018-12-22T00:23:31.804Z,86.40
2018-12-22T00:26:00.378Z,86.40
2018-12-22T00:28:29.449Z,86.40
2018-12-22T00:30:57.981Z,86.30
2018-12-22T00:33:26.685Z,86.20
2018-12-22T00:35:55.217Z,86.20
2018-12-22T00:38:23.727Z,86.10
2018-12-22T00:40:52.245Z,86.20
2018-12-22T00:43:21.533Z,86.30
2018-12-22T00:45:50.087Z,86.20
2018-12-22T00:48:18.701Z,86.20
2018-12-22T00:50:47.195Z,86.20
2018-12-22T00:53:15.664Z,87.00
2018-12-22T00:55:44.142Z,86.30
2018-12-22T00:58:12.629Z,86.20
2018-12-22T01:00:41.219Z,86.10
2018-12-22T01:03:09.733Z,86.10
2018-12-22T01:05:38.259Z,86.10
2018-12-22T01:08:06.769Z,86.00
2018-12-22T01:10:35.276Z,86.00
2018-12-22T01:13:03.807Z,85.90
2018-12-22T01:15:32.340Z,85.90
2018-12-22T01:18:00.845Z,85.90
2018-12-22T01:20:29.418Z,85.90
2018-12-22T01:22:57.981Z,86.00
2018-12-22T01:25:26.528Z,86.00
2018-12-22T01:27:55.049Z,85.90
2018-12-22T01:30:23.596Z,85.90
2018-12-22T01:32:52.126Z,85.90
2018-12-22T01:35:20.608Z,85.90
2018-12-22T01:37:49.152Z,85.90
2018-12-22T01:40:17.669Z,85.90
2018-12-22T01:42:46.245Z,85.90
2018-12-22T01:45:14.797Z,85.90
2018-12-22T01:47:43.296Z,85.90
2018-12-22T01:50:11.780Z,85.90
2018-12-22T01:52:40.306Z,85.80
2018-12-22T01:55:08.933Z,85.90
2018-12-22T01:57:37.478Z,85.80
2018-12-22T02:00:08.096Z,85.80
2018-12-22T02:02:36.626Z,85.70
2018-12-22T02:05:06.192Z,85.60
2018-12-22T02:07:34.711Z,85.60
2018-12-22T02:10:03.204Z,85.60
2018-12-22T02:12:31.735Z,85.60
2018-12-22T02:15:00.272Z,85.60
2018-12-22T02:17:28.811Z,85.60
2018-12-22T02:19:57.318Z,85.60
2018-12-22T02:22:25.784Z,85.60
2018-12-22T02:24:54.251Z,85.50
2018-12-22T02:27:22.729Z,85.60
2018-12-22T02:29:51.187Z,85.60
2018-12-22T02:32:19.631Z,85.60
2018-12-22T02:34:48.095Z,85.60
2018-12-22T02:37:16.550Z,85.60
2018-12-22T02:39:45.046Z,85.70
2018-12-22T02:42:13.570Z,85.60
2018-12-22T02:44:42.013Z,85.70
2018-12-22T02:47:10.487Z,85.70
2018-12-22T02:49:38.969Z,85.60
2018-12-22T02:52:07.408Z,85.50
2018-12-22T02:54:35.894Z,85.60
2018-12-22T02:57:04.308Z,85.60
2018-12-22T02:59:32.773Z,85.60
2018-12-22T03:02:01.255Z,85.60
2018-12-22T03:04:29.832Z,85.60
2018-12-22T03:06:58.358Z,85.60
2018-12-22T03:09:26.785Z,85.60
2018-12-22T03:11:55.261Z,85.60
2018-12-22T03:14:23.737Z,85.50
2018-12-22T03:16:52.282Z,86.40
2018-12-22T03:19:20.709Z,85.50
2018-12-22T03:21:49.187Z,85.50
2018-12-22T03:24:18.543Z,85.60
2018-12-22T03:26:46.994Z,85.50
2018-12-22T03:29:16.082Z,85.50
2018-12-22T03:31:44.841Z,85.50
2018-12-22T03:34:13.341Z,85.50
2018-12-22T03:36:41.772Z,85.40
2018-12-22T03:39:10.890Z,85.40
2018-12-22T03:41:39.470Z,85.50
2018-12-22T03:44:08.180Z,86.20
2018-12-22T03:46:36.640Z,85.40
2018-12-22T03:49:05.103Z,85.40
2018-12-22T03:51:33.553Z,85.30
2018-12-22T03:54:01.999Z,85.40
2018-12-22T03:56:30.501Z,85.30
2018-12-22T03:58:58.965Z,85.30
2018-12-22T04:01:27.455Z,85.30
2018-12-22T04:03:55.869Z,85.40
2018-12-22T04:06:24.340Z,85.50
2018-12-22T04:08:52.831Z,85.40
2018-12-22T04:11:21.298Z,85.40
2018-12-22T04:13:49.795Z,85.30
2018-12-22T04:16:18.265Z,85.30
2018-12-22T04:18:46.730Z,85.50
2018-12-22T04:21:15.208Z,85.40
2018-12-22T04:23:43.666Z,85.50
2018-12-22T04:26:12.157Z,85.60
2018-12-22T04:28:40.596Z,85.50
2018-12-22T04:31:09.089Z,85.50
2018-12-22T04:33:37.912Z,85.50
2018-12-22T04:36:06.426Z,85.50
2018-12-22T04:38:34.899Z,85.50
2018-12-22T04:41:03.381Z,85.60
2018-12-22T04:43:31.827Z,85.60
2018-12-22T04:46:00.403Z,85.50
2018-12-22T04:48:28.841Z,85.50
2018-12-22T04:50:57.285Z,85.40
2018-12-22T04:53:25.746Z,85.50
2018-12-22T04:55:54.550Z,85.50
2018-12-22T04:58:22.972Z,85.60
2018-12-22T05:00:51.469Z,85.50
2018-12-22T05:03:20.257Z,85.50
2018-12-22T05:05:48.787Z,85.50
2018-12-22T05:08:17.252Z,85.50
2018-12-22T05:10:45.757Z,85.40
2018-12-22T05:13:14.205Z,85.40
2018-12-22T05:15:42.708Z,85.30
2018-12-22T05:18:11.197Z,85.30
2018-12-22T05:20:39.768Z,85.30
2018-12-22T05:23:08.240Z,85.40
2018-12-22T05:25:36.869Z,85.50
2018-12-22T05:28:05.338Z,85.50
2018-12-22T05:30:33.967Z,85.50
2018-12-22T05:33:02.464Z,85.60
2018-12-22T05:35:30.995Z,85.60
2018-12-22T05:37:59.793Z,85.60
2018-12-22T05:40:28.310Z,85.60
2018-12-22T05:42:56.803Z,85.60
2018-12-22T05:45:25.235Z,85.70
2018-12-22T05:47:53.730Z,85.60
2018-12-22T05:50:22.198Z,85.70
2018-12-22T05:52:50.682Z,85.70
2018-12-22T05:55:19.132Z,85.70
2018-12-22T05:57:47.594Z,86.30
2018-12-22T06:00:16.064Z,85.70
2018-12-22T06:02:44.548Z,85.50
2018-12-22T06:05:13.122Z,85.60
2018-12-22T06:07:41.603Z,85.40
2018-12-22T06:10:10.038Z,85.50
2018-12-22T06:12:38.533Z,86.10
2018-12-22T06:15:07.274Z,85.50
2018-12-22T06:17:35.757Z,85.50
2018-12-22T06:20:05.042Z,85.50
2018-12-22T06:22:33.546Z,85.60
2018-12-22T06:25:02.067Z,85.60
2018-12-22T06:27:30.541Z,85.70
2018-12-22T06:29:59.001Z,85.70
2018-12-22T06:32:27.507Z,85.70
2018-12-22T06:34:56.139Z,85.80
2018-12-22T06:37:24.636Z,85.70
2018-12-22T06:39:53.101Z,85.80
2018-12-22T06:42:21.634Z,85.80
2018-12-22T06:44:50.073Z,85.80
2018-12-22T06:47:18.559Z,85.80
2018-12-22T06:49:47.044Z,85.90
2018-12-22T06:52:16.231Z,85.90
2018-12-22T06:54:44.640Z,85.90
2018-12-22T06:57:13.130Z,85.90
2018-12-22T06:59:41.582Z,85.90
2018-12-22T07:02:10.055Z,85.90
2018-12-22T07:04:38.490Z,85.90
2018-12-22T07:07:07.026Z,85.90
2018-12-22T07:09:35.509Z,85.90
2018-12-22T07:12:04.006Z,85.90
2018-12-22T07:14:32.464Z,85.90
2018-12-22T07:17:00.949Z,85.90
2018-12-22T07:19:29.432Z,85.90
2018-12-22T07:21:57.939Z,85.90
2018-12-22T07:24:26.923Z,85.90
2018-12-22T07:26:55.365Z,85.90
2018-12-22T07:29:23.850Z,85.90
2018-12-22T07:31:52.363Z,85.90
2018-12-22T07:34:21.114Z,85.90
2018-12-22T07:36:49.578Z,86.00
2018-12-22T07:39:18.045Z,85.90
2018-12-22T07:41:46.530Z,85.90
2018-12-22T07:44:15.033Z,85.90
2018-12-22T07:46:43.860Z,85.90
2018-12-22T07:49:12.342Z,85.90
2018-12-22T07:51:40.793Z,85.90
2018-12-22T07:54:09.360Z,85.90
2018-12-22T07:56:37.793Z,85.90
2018-12-22T07:59:06.220Z,86.00
2018-12-22T08:01:34.713Z,85.90
2018-12-22T08:04:03.166Z,86.00
2018-12-22T08:06:31.721Z,86.00
2018-12-22T08:09:00.181Z,86.00
2018-12-22T08:11:28.695Z,86.00
2018-12-22T08:13:57.158Z,86.00
2018-12-22T08:16:25.604Z,86.00
2018-12-22T08:18:54.185Z,86.00
2018-12-22T08:21:22.659Z,86.00
2018-12-22T08:23:51.130Z,86.00
2018-12-22T08:26:19.593Z,86.00
2018-12-22T08:28:48.056Z,86.00
2018-12-22T08:31:16.472Z,86.00
2018-12-22T08:33:45.051Z,86.00
2018-12-22T08:36:13.828Z,86.00
2018-12-22T08:38:42.291Z,86.00
2018-12-22T08:41:10.932Z,86.00
2018-12-22T08:43:39.446Z,86.00
2018-12-22T08:46:07.923Z,86.00
2018-12-22T08:48:36.419Z,86.00
2018-12-22T08:51:04.994Z,86.00
2018-12-22T08:53:33.485Z,86.00
2018-12-22T08:56:01.911Z,86.20
2018-12-22T08:58:30.358Z,86.10
2018-12-22T09:00:58.813Z,86.10
2018-12-22T09:03:27.282Z,86.10
2018-12-22T09:05:55.813Z,86.10
2018-12-22T09:08:24.282Z,86.10
2018-12-22T09:10:52.885Z,86.10
2018-12-22T09:13:21.340Z,86.10
2018-12-22T09:15:49.792Z,86.10
2018-12-22T09:18:18.374Z,86.10
2018-12-22T09:20:46.905Z,86.10
2018-12-22T09:23:15.418Z,86.20
2018-12-22T09:25:44.090Z,86.10
2018-12-22T09:28:12.536Z,86.20
2018-12-22T09:30:41.074Z,86.10
2018-12-22T09:33:09.558Z,86.10
2018-12-22T09:35:38.050Z,86.10
2018-12-22T09:38:06.516Z,86.10
2018-12-22T09:40:34.993Z,86.10
2018-12-22T09:43:03.477Z,86.10
2018-12-22T09:45:31.977Z,86.20
2018-12-22T09:48:00.482Z,86.30
2018-12-22T09:50:28.941Z,86.20
2018-12-22T09:52:57.518Z,86.20
2018-12-22T09:55:25.966Z,86.20
2018-12-22T09:57:54.609Z,86.20
2018-12-22T10:00:23.124Z,86.20
2018-12-22T10:02:51.639Z,86.20
2018-12-22T10:05:20.095Z,86.10
2018-12-22T10:07:48.610Z,86.10
2018-12-22T10:10:18.268Z,86.20
2018-12-22T10:12:46.971Z,86.10
2018-12-22T10:15:16.011Z,86.10
2018-12-22T10:17:44.751Z,86.10
2018-12-22T10:20:13.181Z,86.10
2018-12-22T10:22:42.281Z,86.10
2018-12-22T10:25:11.469Z,86.10
2018-12-22T10:27:39.949Z,86.10
2018-12-22T10:30:13.848Z,86.10
2018-12-22T10:32:42.577Z,86.20
2018-12-22T10:35:18.100Z,86.10
2018-12-22T10:37:46.752Z,86.20
2018-12-22T10:40:15.263Z,86.20
2018-12-22T10:42:43.775Z,86.20
2018-12-22T10:45:12.226Z,86.20
2018-12-22T10:47:40.853Z,86.30
2018-12-22T10:50:09.461Z,86.30
2018-12-22T10:52:38.012Z,86.20
2018-12-22T10:55:07.331Z,86.20
2018-12-22T10:57:35.885Z,86.30
2018-12-22T11:00:06.750Z,86.20
2018-12-22T11:02:35.380Z,86.40
2018-12-22T11:05:04.243Z,87.00
2018-12-22T11:07:33.931Z,86.00
2018-12-22T11:10:02.414Z,87.00
2018-12-22T11:12:30.963Z,86.20
2018-12-22T11:14:59.450Z,86.20
2018-12-22T11:17:27.981Z,86.20
2018-12-22T11:19:56.533Z,86.30
2018-12-22T11:22:25.052Z,86.20
2018-12-22T11:24:54.045Z,86.30
2018-12-22T11:27:22.532Z,86.30
2018-12-22T11:29:51.243Z,86.40
2018-12-22T11:32:20.984Z,86.40
2018-12-22T11:34:49.791Z,86.30
2018-12-22T11:37:18.364Z,86.30
2018-12-22T11:39:46.838Z,86.20
2018-12-22T11:42:15.311Z,86.30
2018-12-22T11:44:43.848Z,86.30
2018-12-22T11:47:25.152Z,86.30
2018-12-22T11:49:53.662Z,86.30
2018-12-22T11:52:22.139Z,86.30
2018-12-22T11:54:50.804Z,86.30
2018-12-22T11:57:19.380Z,86.30
2018-12-22T11:59:47.885Z,86.50
2018-12-22T12:02:16.456Z,86.50
2018-12-22T12:04:44.910Z,86.40
2018-12-22T12:07:13.490Z,86.50
2018-12-22T12:09:41.919Z,86.40
2018-12-22T12:12:10.467Z,86.40
2018-12-22T12:14:39.050Z,86.60
2018-12-22T12:19:20.467Z,86.40
2018-12-22T12:21:48.964Z,86.50
2018-12-22T12:24:17.679Z,86.50
2018-12-22T12:26:46.199Z,86.50
2018-12-22T12:29:14.980Z,86.60
2018-12-22T12:31:51.916Z,86.50
2018-12-22T12:34:14.897Z,86.60
2018-12-22T12:36:44.248Z,86.60
2018-12-22T12:39:14.627Z,86.70
2018-12-22T12:41:43.467Z,86.60
2018-12-22T12:44:11.984Z,86.70
2018-12-22T12:46:46.573Z,86.80
2018-12-22T12:49:15.796Z,86.70
2018-12-22T12:51:44.361Z,86.70
2018-12-22T12:54:12.891Z,86.70
2018-12-22T12:56:47.429Z,86.70
2018-12-22T12:59:15.927Z,86.70
2018-12-22T13:01:44.394Z,86.80
2018-12-22T13:04:12.909Z,86.80
2018-12-22T13:06:41.480Z,86.70
2018-12-22T13:09:10.290Z,86.60
2018-12-22T13:11:39.000Z,86.70
2018-12-22T13:14:15.500Z,86.70
2018-12-22T13:16:44.155Z,86.70
2018-12-22T13:19:12.872Z,86.80
2018-12-22T13:21:43.615Z,86.70
2018-12-22T13:24:13.070Z,86.60
2018-12-22T13:26:42.125Z,86.60
2018-12-22T13:29:10.964Z,86.60
2018-12-22T13:31:40.965Z,86.60
2018-12-22T13:34:09.999Z,86.60
2018-12-22T13:36:39.305Z,86.70
2018-12-22T13:39:14.388Z,86.60
2018-12-22T13:41:42.906Z,87.40
2018-12-22T13:44:11.501Z,86.70
2018-12-22T13:46:40.011Z,86.60
2018-12-22T13:49:08.821Z,86.70
2018-12-22T13:51:38.829Z,86.60
2018-12-22T13:54:07.290Z,86.50
2018-12-22T13:56:35.923Z,86.60
2018-12-22T13:59:04.657Z,86.50
2018-12-22T14:01:36.855Z,86.50
2018-12-22T14:04:05.294Z,86.60
2018-12-22T14:06:38.322Z,86.60
2018-12-22T14:09:08.110Z,86.60
2018-12-22T14:11:36.724Z,86.60
2018-12-22T14:14:06.880Z,86.50
2018-12-22T14:16:50.379Z,86.50
2018-12-22T14:19:19.637Z,86.50
2018-12-22T14:21:48.624Z,86.50
2018-12-22T14:24:34.109Z,86.60
2018-12-22T14:27:02.919Z,86.60
2018-12-22T14:29:31.526Z,86.50
2018-12-22T14:32:00.144Z,86.50
2018-12-22T14:34:33.040Z,86.50
2018-12-22T14:37:01.596Z,86.50
2018-12-22T14:39:30.100Z,86.50
2018-12-22T14:41:58.713Z,86.40
2018-12-22T14:44:27.272Z,86.40
2018-12-22T14:46:55.803Z,86.40
2018-12-22T14:49:24.262Z,86.40
2018-12-22T14:51:52.834Z,86.40
2018-12-22T14:54:21.355Z,86.40
2018-12-22T14:56:50.761Z,86.50
2018-12-22T14:59:21.841Z,86.50
2018-12-22T15:01:54.159Z,86.50
2018-12-22T15:04:22.673Z,86.50
2018-12-22T15:06:51.157Z,86.50
2018-12-22T15:09:20.002Z,86.50
2018-12-22T15:11:48.533Z,86.60
2018-12-22T15:14:17.245Z,86.50
2018-12-22T15:16:45.798Z,86.50
2018-12-22T15:19:14.396Z,86.50
2018-12-22T15:21:43.042Z,86.50
2018-12-22T15:24:11.946Z,86.60
2018-12-22T15:26:40.456Z,86.60
2018-12-22T15:29:10.835Z,86.60
2018-12-22T15:31:39.290Z,86.60
2018-12-22T15:34:07.816Z,86.50
2018-12-22T15:36:36.262Z,86.70
2018-12-22T15:39:07.396Z,86.60
2018-12-22T15:41:35.949Z,86.60
2018-12-22T15:44:04.670Z,86.60
2018-12-22T15:46:33.275Z,86.60
2018-12-22T15:49:01.796Z,86.70
2018-12-22T15:51:30.234Z,86.70
2018-12-22T15:53:59.328Z,86.70
2018-12-22T15:56:28.604Z,87.50
2018-12-22T15:58:57.161Z,86.60
2018-12-22T16:01:25.629Z,86.60
2018-12-22T16:03:54.390Z,86.60
2018-12-22T16:06:22.881Z,86.60
2018-12-22T16:08:51.553Z,86.70
2018-12-22T16:11:20.613Z,86.60
2018-12-22T16:13:49.536Z,86.60
2018-12-22T16:16:18.060Z,86.70
2018-12-22T16:18:46.724Z,86.70
2018-12-22T16:21:15.231Z,86.70
2018-12-22T16:23:43.873Z,86.70
2018-12-22T16:26:12.761Z,87.40
2018-12-22T16:28:46.928Z,86.70
2018-12-22T16:31:15.393Z,86.60
2018-12-22T16:33:44.806Z,86.60
2018-12-22T16:36:14.168Z,86.60
2018-12-22T16:38:42.761Z,86.60
2018-12-22T16:41:11.260Z,86.60
2018-12-22T16:43:40.713Z,86.60
2018-12-22T16:46:09.320Z,86.60
2018-12-22T16:48:39.504Z,86.70
2018-12-22T16:51:08.114Z,86.60
2018-12-22T16:53:36.630Z,86.50
2018-12-22T16:56:05.345Z,86.60
2018-12-22T16:58:37.248Z,86.70
2018-12-22T17:01:41.103Z,86.60
2018-12-22T17:04:09.617Z,86.60
2018-12-22T17:06:40.032Z,86.60
2018-12-22T17:09:11.032Z,86.60
2018-12-22T17:11:39.712Z,86.60
2018-12-22T17:14:08.310Z,86.70
2018-12-22T17:16:38.024Z,86.60
2018-12-22T17:19:06.645Z,86.60
2018-12-22T17:22:45.680Z,86.60
2018-12-22T17:25:20.251Z,86.60
2018-12-22T17:27:48.716Z,86.40
2018-12-22T17:30:17.273Z,86.40
2018-12-22T17:32:45.825Z,86.40
2018-12-22T17:35:15.649Z,86.40
2018-12-22T17:37:44.162Z,86.40
2018-12-22T17:40:12.630Z,86.50
2018-12-22T17:42:41.210Z,86.50
2018-12-22T17:45:10.877Z,86.50
2018-12-22T17:47:40.404Z,86.60
2018-12-22T17:50:09.129Z,86.60
2018-12-22T17:52:38.302Z,86.60
2018-12-22T17:55:09.016Z,86.60
2018-12-22T17:57:37.463Z,86.70
2018-12-22T18:00:08.549Z,86.70
2018-12-22T18:02:36.980Z,86.60
2018-12-22T18:05:05.944Z,86.70
2018-12-22T18:07:34.372Z,86.70
2018-12-22T18:10:02.977Z,86.60
2018-12-22T18:12:31.490Z,86.60
2018-12-22T18:15:00.136Z,86.60
2018-12-22T18:17:28.671Z,86.70
2018-12-22T18:19:57.124Z,86.70
2018-12-22T18:22:25.589Z,86.60
2018-12-22T18:24:54.053Z,86.70
2018-12-22T18:27:22.542Z,86.60
2018-12-22T18:29:51.039Z,86.60
2018-12-22T18:32:19.477Z,86.60
2018-12-22T18:34:48.043Z,86.60
2018-12-22T18:37:16.591Z,86.70
2018-12-22T18:39:45.022Z,86.70
2018-12-22T18:42:13.723Z,86.70
2018-12-22T18:44:42.248Z,86.70
2018-12-22T18:47:10.877Z,86.70
2018-12-22T18:49:39.331Z,86.70
2018-12-22T18:52:07.844Z,86.70
2018-12-22T18:54:36.298Z,86.80
2018-12-22T18:57:05.187Z,86.70
2018-12-22T18:59:33.637Z,86.70
2018-12-22T19:02:02.139Z,86.80
2018-12-22T19:04:30.732Z,86.70
2018-12-22T19:06:59.346Z,86.70
2018-12-22T19:09:30.436Z,86.70
2018-12-22T19:11:59.791Z,86.80
2018-12-22T19:14:28.265Z,86.70
2018-12-22T19:16:56.692Z,86.70
2018-12-22T19:19:25.156Z,86.70
2018-12-22T19:21:53.736Z,86.80
2018-12-22T19:24:22.251Z,86.80
2018-12-22T19:26:50.769Z,86.70
2018-12-22T19:29:19.270Z,86.70
2018-12-22T19:31:47.689Z,86.70
2018-12-22T19:34:16.190Z,87.40
2018-12-22T19:36:44.660Z,87.10
2018-12-22T19:39:13.187Z,86.80
2018-12-22T19:41:41.680Z,86.80
2018-12-22T19:44:10.174Z,86.80
2018-12-22T19:46:38.869Z,86.80
2018-12-22T19:49:07.314Z,86.70
2018-12-22T19:51:35.761Z,86.80
2018-12-22T19:54:04.348Z,86.80
2018-12-22T19:56:32.821Z,86.80
2018-12-22T19:59:01.603Z,86.70
2018-12-22T20:01:30.277Z,86.70
2018-12-22T20:04:02.171Z,86.60
2018-12-22T20:06:29.594Z,86.70
2018-12-22T20:08:58.089Z,86.70
2018-12-22T20:11:26.722Z,86.80
2018-12-22T20:13:55.174Z,86.80
2018-12-22T20:16:23.673Z,86.90
2018-12-22T20:18:52.143Z,86.80
2018-12-22T20:21:20.782Z,86.80
2018-12-22T20:23:49.335Z,86.80
2018-12-22T20:26:17.796Z,86.70
2018-12-22T20:28:46.829Z,86.70
2018-12-22T20:31:15.285Z,86.70
2018-12-22T20:33:43.859Z,86.70
2018-12-22T20:36:12.372Z,86.70
2018-12-22T20:38:40.857Z,86.80
2018-12-22T20:41:09.462Z,86.80
2018-12-22T20:43:38.178Z,86.80
2018-12-22T20:46:06.722Z,86.70
2018-12-22T20:48:35.790Z,86.70
2018-12-22T20:51:04.263Z,86.60
2018-12-22T20:53:32.769Z,86.60
2018-12-22T20:56:01.236Z,86.70
2018-12-22T20:58:29.707Z,86.60
2018-12-22T21:00:58.143Z,86.60
2018-12-22T21:03:36.513Z,86.60
2018-12-22T21:06:05.027Z,86.70
2018-12-22T21:08:33.535Z,86.70
2018-12-22T21:11:02.025Z,86.70
2018-12-22T21:13:30.663Z,86.70
2018-12-22T21:15:59.147Z,86.70
2018-12-22T21:18:27.615Z,86.70
2018-12-22T21:20:56.119Z,86.60
2018-12-22T21:23:24.684Z,86.70
2018-12-22T21:25:53.196Z,86.60
2018-12-22T21:28:21.790Z,86.70
2018-12-22T21:30:50.243Z,86.60
2018-12-22T21:33:18.878Z,86.70
2018-12-22T21:35:53.230Z,86.70
2018-12-22T21:38:17.804Z,86.70
2018-12-22T21:40:46.299Z,86.70
2018-12-22T21:43:14.870Z,86.70
2018-12-22T21:45:43.271Z,86.70
2018-12-22T21:48:11.661Z,86.60
2018-12-22T21:50:40.130Z,86.60
2018-12-22T21:53:08.639Z,86.60
2018-12-22T21:55:37.115Z,86.60
2018-12-22T21:58:05.599Z,86.60
2018-12-22T22:00:34.194Z,86.60
2018-12-22T22:03:02.659Z,86.60
2018-12-22T22:05:31.139Z,86.60
2018-12-22T22:07:59.603Z,86.60
2018-12-22T22:10:28.064Z,86.70
2018-12-22T22:12:56.544Z,86.60
2018-12-22T22:15:25.026Z,86.70
2018-12-22T22:17:53.490Z,86.70
2018-12-22T22:20:21.936Z,86.60
2018-12-22T22:22:50.365Z,86.60
2018-12-22T22:25:18.905Z,86.60
2018-12-22T22:27:47.444Z,86.50
2018-12-22T22:30:15.924Z,86.50
2018-12-22T22:32:44.393Z,86.50
2018-12-22T22:35:12.862Z,86.60
2018-12-22T22:37:41.299Z,86.60
2018-12-22T22:40:09.812Z,86.50
2018-12-22T22:42:38.291Z,86.60
2018-12-22T22:45:07.054Z,86.60
2018-12-22T22:47:35.511Z,86.70
2018-12-22T22:50:04.110Z,86.60
2018-12-22T22:52:32.537Z,86.60
2018-12-22T22:55:01.012Z,86.60
2018-12-22T22:57:29.483Z,86.70
2018-12-22T22:59:58.020Z,86.70
2018-12-22T23:02:26.445Z,86.70
2018-12-22T23:04:54.933Z,86.70
2018-12-22T23:07:23.369Z,86.70
2018-12-22T23:09:51.824Z,86.70
2018-12-22T23:12:20.285Z,86.60
2018-12-22T23:14:48.800Z,86.60
2018-12-22T23:17:17.260Z,87.30
2018-12-22T23:19:45.780Z,86.60
2018-12-22T23:22:14.274Z,86.70
2018-12-22T23:24:42.892Z,86.70
2018-12-22T23:27:11.488Z,87.40
2018-12-22T23:29:40.078Z,86.70
2018-12-22T23:32:08.530Z,86.70
2018-12-22T23:34:37.097Z,86.70
2018-12-22T23:37:05.511Z,86.70
2018-12-22T23:39:34.099Z,86.70
2018-12-22T23:42:02.590Z,86.70
2018-12-22T23:44:31.160Z,86.70
2018-12-22T23:46:59.699Z,86.60
2018-12-22T23:49:28.220Z,86.60
2018-12-22T23:51:56.839Z,86.60
2018-12-22T23:54:25.371Z,86.60
2018-12-22T23:56:53.863Z,86.70
2018-12-22T23:59:22.383Z,86.60
